Time;durP1;ratioP1;P1;durP2;ratioP2;P2;SDS_P1;SDS_P2;PMS_P1;PMS_P2;Temp;Humidity;BMP_temperature;BMP_pressure;BME280_temperature;BME280_humidity;BME280_pressure;Samples;Min_cycle;Max_cycle;Signal;HPM_P1;HPM_P2
2024/02/10 00:01:48;;;;;;;1.45;0.85;;;;;;;33.26;26.12;96075.50;7399999;19;20028;-54
2024/02/10 00:04:17;;;;;;;16.77;1.42;;;;;;;33.39;25.94;96071.13;7398902;19;20119;-54
2024/02/10 00:06:45;;;;;;;2.25;1.08;;;;;;;32.57;26.99;96087.06;7398081;19;20576;-54
2024/02/10 00:09:13;;;;;;;1.13;0.52;;;;;;;32.12;27.00;96086.25;7398576;19;20018;-54
2024/02/10 00:11:39;;;;;;;8.43;0.65;;;;;;;32.03;27.27;96084.09;7394075;19;20015;-54
2024/02/10 00:14:06;;;;;;;1.83;0.63;;;;;;;32.01;27.40;96081.22;7397375;19;20029;-54
2024/02/10 00:16:33;;;;;;;2.97;1.15;;;;;;;32.00;27.30;96079.75;7397088;19;20466;-54
2024/02/10 00:19:06;;;;;;;0.80;0.80;;;;;;;31.91;27.08;96084.75;7402310;19;20018;-54
2024/02/10 00:21:32;;;;;;;3.40;1.45;;;;;;;31.79;27.25;96087.59;7396847;19;20031;-54
2024/02/10 00:23:59;;;;;;;3.50;0.30;;;;;;;32.96;26.58;96078.41;7401564;19;20371;-54
2024/02/10 00:26:25;;;;;;;9.32;1.63;;;;;;;34.16;25.06;96080.94;7396195;19;20014;-55
2024/02/10 00:28:58;;;;;;;2.05;1.55;;;;;;;34.47;24.75;96086.53;7402573;19;20018;-56
2024/02/10 00:31:24;;;;;;;1.05;0.93;;;;;;;34.76;24.62;96090.66;7398721;19;20462;-56
2024/02/10 00:33:51;;;;;;;13.55;1.08;;;;;;;34.22;25.13;96083.78;7399469;19;20025;-56
2024/02/10 00:36:18;;;;;;;2.20;1.15;;;;;;;34.09;24.77;96090.38;7397553;19;20029;-56
2024/02/10 00:38:45;;;;;;;5.10;1.13;;;;;;;34.07;24.45;96093.25;7401473;19;20032;-56
2024/02/10 00:41:11;;;;;;;2.67;0.55;;;;;;;33.68;25.05;96101.34;7399590;19;20011;-56
2024/02/10 00:43:42;;;;;;;3.25;1.02;;;;;;;33.85;24.52;96099.84;7396719;19;20014;-56
2024/02/10 00:46:09;;;;;;;0.57;0.35;;;;;;;33.85;24.66;96096.94;7395360;19;20101;-56
2024/02/10 00:48:37;;;;;;;2.38;0.47;;;;;;;33.96;24.77;96103.41;7400896;19;20014;-56
2024/02/10 00:51:05;;;;;;;6.22;1.90;;;;;;;33.37;24.95;96102.88;7402299;19;20580;-58
2024/02/10 00:53:44;;;;;;;0.40;0.38;;;;;;;33.44;25.38;96098.53;7397926;19;20011;-56
2024/02/10 00:56:12;;;;;;;1.05;0.73;;;;;;;33.34;25.09;96089.91;7397268;19;20353;-56
2024/02/10 00:58:43;;;;;;;14.13;1.40;;;;;;;32.42;25.75;96094.22;7399533;19;20037;-58
2024/02/10 01:01:20;;;;;;;0.35;0.35;;;;;;;31.72;26.31;96106.28;7398076;19;20018;-56
2024/02/10 01:03:47;;;;;;;12.30;2.08;;;;;;;32.03;25.80;96110.00;7397613;19;20039;-56
2024/02/10 01:06:20;;;;;;;1.30;0.95;;;;;;;32.30;25.63;96108.63;7397143;19;20042;-56
2024/02/10 01:08:48;;;;;;;1.20;0.70;;;;;;;32.47;25.47;96106.47;7400613;19;20014;-56
2024/02/10 01:11:15;;;;;;;0.43;0.38;;;;;;;31.80;26.04;96114.94;7397520;19;20066;-56
2024/02/10 01:13:43;;;;;;;0.57;0.38;;;;;;;31.79;25.71;96119.25;7397721;19;20021;-56
2024/02/10 01:16:15;;;;;;;2.67;1.65;;;;;;;32.03;25.84;96112.88;7397660;19;20018;-56
2024/02/10 01:18:48;;;;;;;3.50;0.70;;;;;;;32.17;25.49;96107.16;7400899;19;20490;-56
2024/02/10 01:21:15;;;;;;;1.13;1.00;;;;;;;32.34;25.58;96110.78;7396350;19;20007;-56
2024/02/10 01:23:46;;;;;;;1.02;0.60;;;;;;;32.25;25.73;96109.34;7400544;19;20011;-56
2024/02/10 01:26:13;;;;;;;5.22;1.00;;;;;;;32.27;25.50;96107.16;7396351;19;20062;-56
2024/02/10 01:28:44;;;;;;;6.13;1.20;;;;;;;32.01;26.11;96115.75;7399749;19;20375;-57
2024/02/10 01:31:12;;;;;;;1.23;1.13;;;;;;;32.23;25.54;96110.03;7397038;19;20011;-56
2024/02/10 01:33:41;;;;;;;4.90;2.28;;;;;;;32.48;25.48;96108.69;7396642;19;20070;-56
2024/02/10 01:36:09;;;;;;;2.50;0.68;;;;;;;32.88;25.26;96108.69;7396335;19;20366;-56
2024/02/10 01:38:54;;;;;;;1.75;0.60;;;;;;;32.83;24.96;96118.06;7397580;19;20011;-57
2024/02/10 01:41:21;;;;;;;1.00;0.95;;;;;;;32.92;24.73;96113.03;7395824;19;20062;-56
2024/02/10 01:43:50;;;;;;;0.45;0.45;;;;;;;32.89;24.74;96115.91;7395781;19;20366;-56
2024/02/10 01:46:21;;;;;;;2.83;0.63;;;;;;;33.04;24.79;96121.69;7396099;19;20022;-56
2024/02/10 01:48:49;;;;;;;1.10;0.82;;;;;;;32.39;24.74;96112.97;7399427;19;20027;-56
2024/02/10 01:51:18;;;;;;;0.30;0.30;;;;;;;32.27;24.72;96118.69;7396448;19;20374;-56
2024/02/10 01:53:44;;;;;;;1.08;0.30;;;;;;;31.98;24.83;96117.19;7399438;19;20013;-56
2024/02/10 01:56:15;;;;;;;0.47;0.47;;;;;;;32.03;24.63;96135.91;7394507;19;20017;-56
2024/02/10 01:58:46;;;;;;;1.70;0.90;;;;;;;31.73;24.94;96138.66;7395936;19;20014;-56
2024/02/10 02:01:15;;;;;;;1.87;0.83;;;;;;;31.67;25.00;96141.47;7394515;19;20019;-57
2024/02/10 02:03:44;;;;;;;2.75;0.98;;;;;;;30.96;25.27;96138.16;7396206;19;20270;-56
2024/02/10 02:06:11;;;;;;;1.30;1.23;;;;;;;30.10;25.98;96143.75;7395813;19;20018;-56
2024/02/10 02:08:38;;;;;;;3.72;0.85;;;;;;;30.94;25.60;96143.16;7395632;19;20070;-56
2024/02/10 02:11:05;;;;;;;6.90;0.77;;;;;;;29.95;26.20;96142.84;7394015;19;20031;-56
2024/02/10 02:13:31;;;;;;;1.42;0.73;;;;;;;29.58;26.04;96151.69;7393539;19;20038;-56
2024/02/10 02:15:58;;;;;;;0.45;0.45;;;;;;;29.32;26.16;96154.91;7395607;19;20006;-56
2024/02/10 02:18:25;;;;;;;0.75;0.70;;;;;;;29.22;26.32;96146.16;7395314;19;20332;-56
2024/02/10 02:20:51;;;;;;;3.50;1.20;;;;;;;29.05;26.71;96145.16;7395241;19;20010;-56
2024/02/10 02:23:20;;;;;;;3.08;1.02;;;;;;;28.33;27.07;96161.81;7395153;19;20386;-56
2024/02/10 02:25:50;;;;;;;1.67;1.58;;;;;;;28.09;27.33;96167.06;7394528;19;20105;-56
2024/02/10 02:28:23;;;;;;;0.68;0.40;;;;;;;28.67;27.05;96164.59;7395463;19;20011;-56
2024/02/10 02:30:49;;;;;;;0.28;0.28;;;;;;;28.20;27.26;96171.59;7399223;19;20018;-56
2024/02/10 02:33:15;;;;;;;1.30;0.52;;;;;;;27.53;27.39;96180.19;7394014;19;20011;-56
2024/02/10 02:35:45;;;;;;;2.15;1.00;;;;;;;26.53;28.26;96187.75;7393665;19;20018;-56
2024/02/10 02:38:13;;;;;;;3.40;0.95;;;;;;;26.24;28.97;96188.41;7394092;19;20036;-56
2024/02/10 02:40:40;;;;;;;2.25;2.05;;;;;;;26.43;28.53;96189.59;7398198;19;20014;-56
2024/02/10 02:43:08;;;;;;;1.17;0.25;;;;;;;26.02;28.69;96202.03;7395378;19;20015;-56
2024/02/10 02:45:35;;;;;;;0.77;0.52;;;;;;;25.71;29.58;96194.72;7392812;19;20340;-56
2024/02/10 02:48:03;;;;;;;2.38;2.17;;;;;;;25.88;29.24;96201.63;7394470;19;20014;-56
2024/02/10 02:50:30;;;;;;;2.17;0.43;;;;;;;25.51;29.26;96200.53;7397778;19;20073;-56
2024/02/10 02:53:02;;;;;;;0.88;0.45;;;;;;;25.13;30.15;96202.19;7393497;19;20014;-56
2024/02/10 02:55:28;;;;;;;;;;;;;;;24.96;30.26;96197.38;7394664;19;20011;-56
2024/02/10 02:57:55;;;;;;;0.47;0.47;;;;;;;26.31;28.91;96196.44;7394203;19;19922;-56
2024/02/10 03:00:22;;;;;;;0.88;0.63;;;;;;;28.42;26.97;96192.03;7395483;19;20015;-56
2024/02/10 03:02:48;;;;;;;0.30;0.30;;;;;;;27.68;27.45;96204.81;7393972;19;20014;-56
2024/02/10 03:05:17;;;;;;;0.43;0.43;;;;;;;28.17;27.40;96200.84;7394966;19;20028;-56
2024/02/10 03:07:45;;;;;;;0.65;0.40;;;;;;;28.84;26.78;96194.97;7395606;19;20010;-56
2024/02/10 03:10:15;;;;;;;0.35;0.22;;;;;;;28.79;26.73;96192.72;7400190;19;20107;-56
2024/02/10 03:12:42;;;;;;;0.20;0.15;;;;;;;29.04;25.93;96192.41;7399201;19;20014;-56
2024/02/10 03:15:09;;;;;;;0.63;0.63;;;;;;;29.32;26.21;96192.19;7400791;19;20498;-56
2024/02/10 03:17:36;;;;;;;0.20;0.20;;;;;;;29.29;25.85;96196.41;7400543;19;20007;-56
2024/02/10 03:20:03;;;;;;;1.95;1.85;;;;;;;29.13;25.51;96202.59;7400339;19;20017;-56
2024/02/10 03:22:29;;;;;;;0.55;0.50;;;;;;;29.11;26.16;96190.38;7404598;19;20018;-56
2024/02/10 03:24:55;;;;;;;0.65;0.35;;;;;;;29.36;25.72;96194.38;7399365;19;20019;-56
2024/02/10 03:27:21;;;;;;;0.15;0.15;;;;;;;29.27;25.81;96193.53;7400685;19;20031;-56
2024/02/10 03:29:49;;;;;;;1.95;0.60;;;;;;;29.37;25.70;96190.09;7398746;19;20017;-56
2024/02/10 03:32:15;;;;;;;0.10;0.10;;;;;;;29.35;25.49;96182.19;7404090;19;20011;-56
2024/02/10 03:34:42;;;;;;;0.88;0.70;;;;;;;29.18;25.71;96186.22;7400359;19;20045;-56
2024/02/10 03:37:09;;;;;;;5.47;1.33;;;;;;;28.89;25.90;96190.03;7399993;19;20335;-56
2024/02/10 03:39:36;;;;;;;1.45;0.40;;;;;;;27.34;26.67;96184.75;7400607;19;20018;-56
2024/02/10 03:42:04;;;;;;;0.40;0.40;;;;;;;28.47;25.79;96187.84;7403554;19;20470;-56
2024/02/10 03:44:35;;;;;;;1.55;0.50;;;;;;;26.84;26.94;96198.56;7404843;19;20014;-57
2024/02/10 03:47:01;;;;;;;0.10;0.10;;;;;;;26.08;27.72;96193.63;7399901;19;20036;-56
2024/02/10 03:49:28;;;;;;;0.40;0.40;;;;;;;25.85;28.00;96197.25;7398616;19;20010;-56
2024/02/10 03:51:55;;;;;;;0.10;0.10;;;;;;;25.94;27.54;96199.69;7402369;19;20036;-56
2024/02/10 03:54:22;;;;;;;0.20;0.20;;;;;;;26.24;27.47;96199.81;7400460;19;20011;-56
2024/02/10 03:56:49;;;;;;;0.17;0.17;;;;;;;25.93;27.89;96197.47;7400625;19;20021;-56
2024/02/10 03:59:16;;;;;;;0.30;0.30;;;;;;;26.25;27.20;96209.81;7400881;19;20496;-56
2024/02/10 04:01:43;;;;;;;0.38;0.38;;;;;;;26.37;27.15;96213.00;7403650;19;20021;-56
2024/02/10 04:04:09;;;;;;;0.20;0.20;;;;;;;26.45;27.10;96215.34;7400100;19;20486;-56
2024/02/10 04:06:37;;;;;;;0.63;0.60;;;;;;;26.28;27.22;96225.59;7399190;19;20015;-56
2024/02/10 04:09:06;;;;;;;0.60;0.38;;;;;;;25.98;27.22;96227.56;7399161;19;20014;-56
2024/02/10 04:11:34;;;;;;;0.28;0.28;;;;;;;25.14;28.22;96231.41;7402342;19;20514;-56
2024/02/10 04:14:00;;;;;;;6.60;0.30;;;;;;;24.88;28.75;96239.09;7397789;19;20010;-56
2024/02/10 04:16:27;;;;;;;0.73;0.73;;;;;;;25.85;27.42;96225.78;7399505;19;20466;-56
2024/02/10 04:18:53;;;;;;;0.40;0.40;;;;;;;25.58;27.82;96227.84;7399433;19;20011;-56
2024/02/10 04:21:20;;;;;;;0.30;0.30;;;;;;;25.64;27.66;96229.41;7400713;19;20011;-56
2024/02/10 04:23:46;;;;;;;0.47;0.47;;;;;;;23.31;30.18;96231.19;7401164;19;20103;-56
2024/02/10 04:26:12;;;;;;;0.20;0.20;;;;;;;25.18;28.27;96223.72;7399220;19;20109;-56
2024/02/10 04:28:39;;;;;;;0.68;0.60;;;;;;;26.08;27.77;96219.28;7398784;19;20448;-56
2024/02/10 04:31:05;;;;;;;0.50;0.20;;;;;;;26.90;26.79;96221.56;7399166;19;20384;-56
2024/02/10 04:33:31;;;;;;;1.58;0.65;;;;;;;26.70;27.17;96221.03;7396829;19;20014;-56
2024/02/10 04:35:57;;;;;;;0.77;0.60;;;;;;;26.54;27.64;96229.16;7399060;19;20011;-56
2024/02/10 04:38:23;;;;;;;0.68;0.68;;;;;;;23.37;30.15;96225.78;7399094;19;20050;-56
2024/02/10 04:40:51;;;;;;;1.75;0.47;;;;;;;21.25;32.64;96240.63;7399165;19;20026;-56
2024/02/10 04:43:17;;;;;;;7.43;1.00;;;;;;;20.51;33.69;96246.91;7401162;19;20025;-56
2024/02/10 04:45:48;;;;;;;0.70;0.70;;;;;;;19.80;34.59;96250.25;7399062;19;20014;-56
2024/02/10 04:48:19;;;;;;;0.35;0.35;;;;;;;20.39;33.27;96246.31;7398914;19;20006;-55
2024/02/10 04:50:45;;;;;;;0.45;0.45;;;;;;;20.85;33.30;96251.47;7398588;19;20066;-56
2024/02/10 04:53:14;;;;;;;0.15;0.15;;;;;;;19.53;34.71;96257.31;7399644;19;20024;-56
2024/02/10 04:55:41;;;;;;;0.20;0.20;;;;;;;20.83;33.18;96264.78;7398085;19;20423;-56
2024/02/10 04:58:07;;;;;;;0.65;0.30;;;;;;;22.58;31.30;96265.13;7398448;19;20006;-55
2024/02/10 05:00:33;;;;;;;0.60;0.38;;;;;;;23.90;30.17;96268.28;7398073;19;20025;-56
2024/02/10 05:03:03;;;;;;;0.50;0.43;;;;;;;23.79;29.77;96264.34;7399132;19;20028;-56
2024/02/10 05:05:29;;;;;;;0.22;0.22;;;;;;;21.70;32.21;96272.50;7397826;19;20023;-56
2024/02/10 05:07:56;;;;;;;0.98;0.38;;;;;;;21.77;32.89;96271.38;7398049;19;20045;-56
2024/02/10 05:10:24;;;;;;;0.43;0.32;;;;;;;20.44;34.25;96281.91;7397355;19;20011;-56
2024/02/10 05:12:51;;;;;;;0.47;0.47;;;;;;;19.92;34.52;96279.16;7396220;19;20102;-55
2024/02/10 05:15:19;;;;;;;4.47;0.70;;;;;;;21.58;33.46;96277.59;7397214;19;20015;-56
2024/02/10 05:17:49;;;;;;;0.45;0.43;;;;;;;20.43;34.39;96283.28;7397691;19;20360;-55
2024/02/10 05:20:18;;;;;;;0.73;0.73;;;;;;;23.15;31.38;96281.69;7396116;19;20006;-56
2024/02/10 05:22:49;;;;;;;0.32;0.32;;;;;;;22.66;32.29;96295.22;7396052;19;20010;-56
2024/02/10 05:25:18;;;;;;;0.40;0.40;;;;;;;20.47;34.08;96300.44;7397574;19;20021;-57
2024/02/10 05:27:45;;;;;;;0.68;0.68;;;;;;;19.48;35.59;96303.66;7397116;19;20096;-56
2024/02/10 05:30:20;;;;;;;0.47;0.47;;;;;;;20.73;34.44;96310.25;7397648;19;20018;-55
2024/02/10 05:32:49;;;;;;;0.57;0.57;;;;;;;21.98;32.82;96313.47;7394323;19;20020;-56
2024/02/10 05:35:19;;;;;;;0.93;0.68;;;;;;;22.53;32.49;96308.84;7400764;19;20484;-57
2024/02/10 05:37:53;;;;;;;0.85;0.50;;;;;;;22.66;32.33;96310.13;7396371;19;20462;-55
2024/02/10 05:40:20;;;;;;;2.30;0.70;;;;;;;22.14;32.98;96308.53;7396575;19;20045;-55
2024/02/10 05:42:48;;;;;;;0.63;0.55;;;;;;;21.57;33.69;96316.50;7396774;19;20036;-57
2024/02/10 05:45:17;;;;;;;3.90;0.63;;;;;;;21.32;33.88;96313.16;7399406;19;20011;-55
2024/02/10 05:47:44;;;;;;;0.47;0.47;;;;;;;20.08;35.10;96311.06;7396020;19;20018;-55
2024/02/10 05:50:16;;;;;;;0.73;0.47;;;;;;;18.12;37.70;96316.13;7397484;19;20017;-55
2024/02/10 05:52:42;;;;;;;0.13;0.13;;;;;;;19.48;35.62;96306.47;7396746;19;20462;-55
2024/02/10 05:55:11;;;;;;;1.05;0.95;;;;;;;19.12;36.07;96318.53;7398117;19;20011;-55
2024/02/10 05:57:38;;;;;;;1.98;0.73;;;;;;;17.98;37.89;96318.09;7395447;19;20108;-56
2024/02/10 06:00:09;;;;;;;0.52;0.52;;;;;;;16.45;40.15;96322.28;7396559;19;20078;-55
2024/02/10 06:02:38;;;;;;;1.23;0.40;;;;;;;17.15;39.44;96320.59;7396712;19;20002;-55
2024/02/10 06:05:07;;;;;;;2.30;1.10;;;;;;;16.63;40.38;96324.25;7398769;19;20017;-56
2024/02/10 06:07:35;;;;;;;2.30;0.80;;;;;;;17.26;39.91;96331.16;7396335;19;20014;-55
2024/02/10 06:10:15;;;;;;;0.45;0.45;;;;;;;16.76;40.28;96325.06;7394237;19;20017;-55
2024/02/10 06:12:46;;;;;;;0.20;0.20;;;;;;;17.70;39.08;96325.53;7394218;19;20026;-55
2024/02/10 06:15:13;;;;;;;1.83;0.32;;;;;;;17.57;39.45;96337.38;7398967;19;20469;-55
2024/02/10 06:17:41;;;;;;;0.30;0.30;;;;;;;16.73;40.67;96329.81;7395519;19;20040;-55
2024/02/10 06:20:22;;;;;;;4.15;1.17;;;;;;;17.80;39.42;96337.41;7395413;19;20021;-56
2024/02/10 06:22:50;;;;;;;0.52;0.30;;;;;;;16.49;41.40;96337.34;7396430;19;20015;-56
2024/02/10 06:25:22;;;;;;;0.95;0.75;;;;;;;16.35;42.01;96339.19;7394894;19;20033;-55
2024/02/10 06:27:51;;;;;;;0.85;0.85;;;;;;;16.35;42.26;96339.19;7395649;19;20501;-56
2024/02/10 06:30:17;;;;;;;0.77;0.63;;;;;;;17.47;40.70;96344.41;7394797;19;20017;-56
2024/02/10 06:32:44;;;;;;;1.30;0.73;;;;;;;17.80;40.45;96345.84;7393896;19;20012;-56
2024/02/10 06:35:11;;;;;;;0.77;0.77;;;;;;;18.92;39.06;96351.22;7395298;19;20006;-55
2024/02/10 06:37:39;;;;;;;0.55;0.52;;;;;;;18.44;39.18;96351.13;7394284;19;20018;-56
2024/02/10 06:40:07;;;;;;;0.55;0.55;;;;;;;18.85;38.80;96349.38;7395091;19;20422;-55
2024/02/10 06:42:36;;;;;;;0.28;0.28;;;;;;;18.50;38.90;96359.97;7394325;19;20044;-56
2024/02/10 06:45:13;;;;;;;2.10;1.08;;;;;;;19.96;36.94;96347.16;7397483;19;20490;-56
2024/02/10 06:47:43;;;;;;;0.68;0.68;;;;;;;18.79;38.59;96358.22;7394228;19;20041;-55
2024/02/10 06:50:14;;;;;;;0.55;0.55;;;;;;;18.65;38.77;96362.28;7393786;19;20476;-55
2024/02/10 06:52:44;;;;;;;1.88;0.65;;;;;;;19.32;37.76;96361.97;7394486;19;20014;-55
2024/02/10 06:55:12;;;;;;;0.30;0.20;;;;;;;18.66;38.87;96367.31;7397371;19;20006;-55
2024/02/10 06:57:42;;;;;;;1.33;1.02;;;;;;;19.03;38.48;96358.91;7394429;19;20078;-56
2024/02/10 07:00:10;;;;;;;0.20;0.20;;;;;;;18.97;38.22;96367.00;7395182;19;20011;-55
2024/02/10 07:02:38;;;;;;;0.55;0.50;;;;;;;17.01;41.41;96378.72;7394590;19;20278;-55
2024/02/10 07:05:13;;;;;;;0.20;0.20;;;;;;;17.21;41.30;96374.41;7395160;19;20037;-56
2024/02/10 07:07:41;;;;;;;;;;;;;;;16.86;41.84;96381.94;7394392;19;20017;-55
2024/02/10 07:10:18;;;;;;;0.38;0.38;;;;;;;17.31;41.58;96389.13;7393778;19;19980;-56
2024/02/10 07:12:46;;;;;;;0.43;0.43;;;;;;;16.54;42.55;96400.94;7392568;19;20485;-56
2024/02/10 07:15:14;;;;;;;0.25;0.25;;;;;;;18.03;40.76;96393.03;7395093;19;20018;-56
2024/02/10 07:17:43;;;;;;;1.38;1.27;;;;;;;20.09;37.25;96380.34;7394383;19;20010;-56
2024/02/10 07:20:22;;;;;;;0.30;0.30;;;;;;;19.00;38.84;96379.88;7393861;19;20011;-55
2024/02/10 07:22:57;;;;;;;0.80;0.80;;;;;;;18.78;39.46;96395.47;7394215;19;20022;-56
2024/02/10 07:25:31;;;;;;;0.38;0.38;;;;;;;19.75;38.28;96381.31;7396111;19;20006;-56
2024/02/10 07:28:01;;;;;;;3.85;0.95;;;;;;;21.30;35.98;96378.91;7393132;19;20018;-56
2024/02/10 07:30:32;;;;;;;1.77;0.30;;;;;;;20.74;36.85;96385.25;7393670;19;20015;-56
2024/02/10 07:33:12;;;;;;;2.40;0.65;;;;;;;21.23;35.94;96393.38;7392183;19;20033;-55
2024/02/10 07:35:43;;;;;;;0.68;0.55;;;;;;;21.17;35.92;96388.16;7395058;19;20011;-56
2024/02/10 07:38:09;;;;;;;1.23;0.28;;;;;;;19.63;37.55;96406.78;7393724;19;20014;-56
2024/02/10 07:40:35;;;;;;;0.57;0.57;;;;;;;19.40;37.80;96413.25;7393157;19;20332;-56
2024/02/10 07:43:04;;;;;;;0.80;0.80;;;;;;;18.75;38.90;96416.47;7391728;19;20025;-56
2024/02/10 07:45:30;;;;;;;0.40;0.40;;;;;;;18.30;39.62;96415.09;7394563;19;20019;-56
2024/02/10 07:47:57;;;;;;;0.50;0.50;;;;;;;19.11;39.28;96415.03;7392820;19;20010;-56
2024/02/10 07:50:26;;;;;;;1.05;0.45;;;;;;;20.83;37.16;96406.19;7393241;19;20364;-56
2024/02/10 07:52:53;;;;;;;0.65;0.43;;;;;;;21.37;36.33;96411.06;7392866;19;20011;-56
2024/02/10 07:55:20;;;;;;;0.47;0.47;;;;;;;21.62;35.94;96419.38;7396146;19;20074;-56
2024/02/10 07:57:46;;;;;;;0.80;0.80;;;;;;;19.33;38.65;96425.53;7400338;19;20018;-56
2024/02/10 08:00:16;;;;;;;0.32;0.32;;;;;;;19.15;38.49;96427.28;7398913;19;20097;-56
2024/02/10 08:02:43;;;;;;;1.00;0.40;;;;;;;18.92;39.36;96427.34;7402842;19;20014;-56
2024/02/10 08:05:10;;;;;;;2.38;1.10;;;;;;;18.81;39.72;96433.72;7400636;19;20465;-56
2024/02/10 08:07:38;;;;;;;3.22;0.57;;;;;;;18.78;39.60;96427.22;7399911;19;20344;-56
2024/02/10 08:10:07;;;;;;;2.05;0.85;;;;;;;17.78;41.45;96438.63;7400092;19;20044;-56
2024/02/10 08:12:33;;;;;;;0.73;0.73;;;;;;;17.92;41.60;96433.88;7398897;19;20018;-56
2024/02/10 08:14:59;;;;;;;1.95;0.80;;;;;;;20.49;38.44;96427.03;7398118;19;20015;-56
2024/02/10 08:17:30;;;;;;;0.60;0.47;;;;;;;21.92;36.03;96429.34;7398597;19;20014;-56
2024/02/10 08:20:02;;;;;;;1.95;0.90;;;;;;;23.28;34.32;96428.44;7400026;19;20025;-56
2024/02/10 08:22:34;;;;;;;1.30;0.57;;;;;;;23.52;34.14;96437.97;7399951;19;20010;-56
2024/02/10 08:25:02;;;;;;;2.50;0.40;;;;;;;23.81;33.75;96443.47;7399327;19;20019;-56
2024/02/10 08:27:29;;;;;;;0.85;0.80;;;;;;;24.25;33.80;96427.47;7399473;19;20014;-56
2024/02/10 08:29:56;;;;;;;1.10;0.40;;;;;;;23.48;34.32;96446.34;7399338;19;20011;-56
2024/02/10 08:32:22;;;;;;;15.63;1.38;;;;;;;23.97;34.40;96444.09;7397903;19;20085;-56
2024/02/10 08:34:51;;;;;;;0.77;0.77;;;;;;;24.60;33.34;96446.56;7398762;19;20343;-56
2024/02/10 08:37:17;;;;;;;3.17;1.38;;;;;;;23.33;35.37;96458.47;7402644;19;20031;-56
2024/02/10 08:39:45;;;;;;;10.63;1.30;;;;;;;22.47;36.22;96467.41;7398575;19;20033;-56
2024/02/10 08:42:15;;;;;;;4.07;0.90;;;;;;;22.27;36.32;96463.63;7398532;19;20082;-56
2024/02/10 08:44:45;;;;;;;0.60;0.60;;;;;;;22.13;37.31;96459.41;7397704;19;20646;-56
2024/02/10 08:47:12;;;;;;;1.17;0.82;;;;;;;23.30;36.46;96460.47;7402346;19;20236;-56
2024/02/10 08:49:39;;;;;;;2.05;1.08;;;;;;;24.94;34.33;96458.50;7400934;19;20344;-56
2024/02/10 08:52:11;;;;;;;1.95;1.02;;;;;;;25.35;34.01;96456.44;7396440;19;20011;-56
2024/02/10 08:54:39;;;;;;;12.00;2.33;;;;;;;25.77;33.54;96454.34;7397909;19;20022;-56
2024/02/10 08:57:09;;;;;;;2.75;2.50;;;;;;;25.59;33.64;96459.41;7401300;19;20018;-56
2024/02/10 08:59:40;;;;;;;5.30;3.08;;;;;;;26.37;32.55;96464.13;7398047;19;20078;-56
2024/02/10 09:02:08;;;;;;;2.20;2.00;;;;;;;25.78;33.36;96460.75;7398319;19;20019;-56
2024/02/10 09:04:34;;;;;;;10.20;2.35;;;;;;;24.87;34.16;96466.09;7397851;19;20011;-56
2024/02/10 09:07:01;;;;;;;5.85;2.47;;;;;;;24.63;34.51;96468.75;7400902;19;20450;-56
2024/02/10 09:09:27;;;;;;;3.30;1.58;;;;;;;24.49;34.84;96473.91;7396841;19;20015;-56
2024/02/10 09:11:54;;;;;;;5.07;1.83;;;;;;;25.16;34.45;96468.59;7397129;19;20006;-56
2024/02/10 09:14:20;;;;;;;2.42;1.20;;;;;;;24.72;34.44;96484.00;7395575;19;20473;-56
2024/02/10 09:16:47;;;;;;;4.13;0.95;;;;;;;24.79;34.90;96477.94;7401262;19;20093;-56
2024/02/10 09:19:15;;;;;;;7.63;2.30;;;;;;;24.84;34.79;96478.78;7396883;19;20013;-56
2024/02/10 09:21:41;;;;;;;1.10;1.05;;;;;;;24.77;34.71;96477.13;7396240;19;20028;-56
2024/02/10 09:24:13;;;;;;;0.75;0.55;;;;;;;24.84;34.88;96476.66;7401014;19;20019;-56
2024/02/10 09:26:40;;;;;;;1.58;1.33;;;;;;;24.07;35.85;96484.34;7400598;19;20006;-56
2024/02/10 09:29:06;;;;;;;1.35;1.30;;;;;;;24.20;36.28;96493.34;7396391;19;20080;-56
2024/02/10 09:31:33;;;;;;;1.20;0.80;;;;;;;24.28;36.26;96493.69;7399669;19;20011;-56
2024/02/10 09:34:00;;;;;;;0.85;0.85;;;;;;;23.05;37.33;96499.81;7394666;19;20470;-56
2024/02/10 09:36:26;;;;;;;0.93;0.90;;;;;;;22.24;39.04;96498.91;7395993;19;20010;-56
2024/02/10 09:38:53;;;;;;;4.07;1.35;;;;;;;22.20;39.09;96503.69;7400093;19;20007;-56
2024/02/10 09:41:19;;;;;;;3.95;1.00;;;;;;;22.18;39.61;96512.78;7396554;19;20407;-56
2024/02/10 09:43:48;;;;;;;8.88;1.25;;;;;;;22.09;40.26;96513.78;7396997;19;20006;-56
2024/02/10 09:46:15;;;;;;;6.10;1.45;;;;;;;22.61;39.64;96519.13;7396375;19;20023;-56
2024/02/10 09:48:46;;;;;;;1.55;0.32;;;;;;;23.09;39.13;96529.09;7395630;19;20007;-56
2024/02/10 09:51:12;;;;;;;;;;;;;;;23.12;39.60;96524.25;7395506;19;20010;-56
2024/02/10 09:53:41;;;;;;;4.13;0.98;;;;;;;22.71;40.55;96526.63;7395747;19;19974;-56
2024/02/10 09:56:10;;;;;;;0.60;0.60;;;;;;;22.59;41.02;96524.69;7396335;19;20018;-56
2024/02/10 09:58:40;;;;;;;0.40;0.40;;;;;;;22.31;41.67;96526.19;7393125;19;20037;-56
2024/02/10 10:01:09;;;;;;;0.73;0.60;;;;;;;24.02;39.66;96516.06;7393582;19;20029;-57
2024/02/10 10:03:37;;;;;;;0.93;0.93;;;;;;;22.60;41.94;96526.19;7392264;19;20029;-56
2024/02/10 10:06:09;;;;;;;2.67;2.42;;;;;;;22.62;42.03;96528.38;7393162;19;20010;-56
2024/02/10 10:08:41;;;;;;;13.80;1.45;;;;;;;22.50;42.21;96522.81;7394269;19;20336;-56
2024/02/10 10:11:11;;;;;;;6.65;1.00;;;;;;;22.27;42.97;96531.66;7395090;19;20007;-56
2024/02/10 10:13:38;;;;;;;4.38;2.42;;;;;;;22.25;44.16;96528.72;7393539;19;20011;-56
2024/02/10 10:16:09;;;;;;;17.05;1.75;;;;;;;22.53;44.13;96530.06;7397274;19;20017;-56
2024/02/10 10:18:35;;;;;;;6.82;1.27;;;;;;;23.68;42.82;96532.44;7393801;19;20510;-56
2024/02/10 10:21:05;;;;;;;3.70;1.38;;;;;;;22.80;44.23;96549.09;7394796;19;20459;-56
2024/02/10 10:23:35;;;;;;;3.15;1.27;;;;;;;23.38;43.38;96536.81;7397633;19;20014;-56
2024/02/10 10:26:02;;;;;;;0.98;0.57;;;;;;;22.85;45.62;96544.34;7394778;19;20014;-56
2024/02/10 10:28:30;;;;;;;6.53;0.75;;;;;;;22.91;45.09;96555.94;7394970;19;20047;-56
2024/02/10 10:30:58;;;;;;;2.70;1.10;;;;;;;22.77;46.04;96541.09;7394428;19;20454;-56
2024/02/10 10:33:26;;;;;;;3.22;0.80;;;;;;;22.98;46.03;96549.16;7391355;19;20098;-56
2024/02/10 10:35:54;;;;;;;2.53;0.95;;;;;;;22.82;45.91;96548.44;7395806;19;20388;-56
2024/02/10 10:38:21;;;;;;;0.73;0.73;;;;;;;22.74;46.12;96545.22;7394024;19;20033;-56
2024/02/10 10:40:51;;;;;;;11.50;0.80;;;;;;;22.74;46.85;96550.91;7393761;19;20014;-56
2024/02/10 10:43:20;;;;;;;0.70;0.70;;;;;;;24.25;44.65;96546.16;7392309;19;20374;-56
2024/02/10 10:45:47;;;;;;;9.05;1.98;;;;;;;24.12;44.72;96541.38;7394221;19;20155;-56
2024/02/10 10:48:13;;;;;;;0.75;0.75;;;;;;;24.24;44.65;96550.38;7393727;19;20470;-56
2024/02/10 10:50:40;;;;;;;1.35;0.73;;;;;;;24.47;44.75;96542.09;7393750;19;20018;-56
2024/02/10 10:53:09;;;;;;;1.00;0.45;;;;;;;24.48;44.88;96546.41;7394799;19;20018;-57
2024/02/10 10:55:35;;;;;;;4.88;1.33;;;;;;;24.74;44.69;96538.91;7394177;19;20469;-57
2024/02/10 10:58:04;;;;;;;1.65;0.35;;;;;;;25.39;43.60;96549.88;7392226;19;20010;-56
2024/02/10 11:00:35;;;;;;;3.85;1.52;;;;;;;26.43;42.11;96546.31;7393160;19;20021;-57
2024/02/10 11:03:02;;;;;;;5.40;0.93;;;;;;;29.21;38.47;96548.88;7397379;19;20010;-56
2024/02/10 11:05:36;;;;;;;5.95;2.25;;;;;;;28.65;38.44;96545.47;7393635;19;20399;-56
2024/02/10 11:08:03;;;;;;;2.60;1.75;;;;;;;28.38;38.52;96546.94;7393663;19;20018;-56
2024/02/10 11:10:50;;;;;;;6.35;2.60;;;;;;;29.57;37.77;96546.72;7392622;19;20040;-56
2024/02/10 11:13:25;;;;;;;1.25;1.15;;;;;;;31.72;35.00;96535.03;7392961;19;20454;-56
2024/02/10 11:16:14;;;;;;;1.98;0.80;;;;;;;32.29;33.82;96541.38;7395028;19;20014;-56
2024/02/10 11:18:44;;;;;;;2.72;0.90;;;;;;;31.87;33.90;96528.00;7393252;19;20029;-56
2024/02/10 11:21:21;;;;;;;2.08;1.38;;;;;;;30.33;35.96;96530.22;7392465;19;20014;-56
2024/02/10 11:24:16;;;;;;;6.22;1.63;;;;;;;29.30;37.15;96524.69;7396411;19;20041;-56
2024/02/10 11:26:44;;;;;;;9.27;1.60;;;;;;;26.62;40.51;96529.09;7395472;19;20037;-56
2024/02/10 11:29:17;;;;;;;3.13;1.17;;;;;;;26.68;41.22;96529.28;7395741;19;20010;-56
2024/02/10 11:31:45;;;;;;;5.22;1.05;;;;;;;26.07;42.59;96532.31;7400489;19;20021;-56
2024/02/10 11:34:16;;;;;;;7.88;1.67;;;;;;;25.94;42.37;96535.44;7400527;19;20084;-56
2024/02/10 11:36:50;;;;;;;2.15;0.77;;;;;;;25.93;43.23;96534.69;7401693;19;20014;-56
2024/02/10 11:39:17;;;;;;;2.83;0.82;;;;;;;26.32;43.10;96539.56;7399124;19;20015;-56
2024/02/10 11:41:44;;;;;;;1.30;0.95;;;;;;;26.15;43.72;96531.88;7400911;19;20096;-56